sensor_id;sensor_type;location;lat;lon;timestamp;temperature;humidity
31809;DHT22;18379;48.208;-1.518;2023-07-20T00:02:39;16.70;99.90
31809;DHT22;18379;48.208;-1.518;2023-07-20T00:07:40;16.70;99.90
31809;DHT22;18379;48.208;-1.518;2023-07-20T00:12:41;16.80;99.90
31809;DHT22;18379;48.208;-1.518;2023-07-20T00:17:47;16.80;99.90
31809;DHT22;18379;48.208;-1.518;2023-07-20T00:22:48;16.60;99.90
31809;DHT22;18379;48.208;-1.518;2023-07-20T00:27:51;16.70;99.90
31809;DHT22;18379;48.208;-1.518;2023-07-20T00:32:52;16.70;99.90
31809;DHT22;18379;48.208;-1.518;2023-07-20T00:37:52;16.80;99.90
31809;DHT22;18379;48.208;-1.518;2023-07-20T00:42:53;16.70;99.90
31809;DHT22;18379;48.208;-1.518;2023-07-20T00:47:54;16.60;99.90
31809;DHT22;18379;48.208;-1.518;2023-07-20T00:52:56;16.50;99.90
31809;DHT22;18379;48.208;-1.518;2023-07-20T00:57:57;16.50;99.90
31809;DHT22;18379;48.208;-1.518;2023-07-20T01:02:58;16.30;99.90
31809;DHT22;18379;48.208;-1.518;2023-07-20T01:08:07;16.20;99.90
31809;DHT22;18379;48.208;-1.518;2023-07-20T01:13:10;16.20;99.90
31809;DHT22;18379;48.208;-1.518;2023-07-20T01:18:11;16.20;99.90
31809;DHT22;18379;48.208;-1.518;2023-07-20T01:23:28;16.30;99.90
31809;DHT22;18379;48.208;-1.518;2023-07-20T01:28:48;16.30;99.90
31809;DHT22;18379;48.208;-1.518;2023-07-20T01:33:58;16.20;99.90
31809;DHT22;18379;48.208;-1.518;2023-07-20T01:39:00;16.00;99.90
31809;DHT22;18379;48.208;-1.518;2023-07-20T01:44:05;15.90;99.90
31809;DHT22;18379;48.208;-1.518;2023-07-20T01:49:05;15.80;99.90
31809;DHT22;18379;48.208;-1.518;2023-07-20T01:54:06;15.80;99.90
31809;DHT22;18379;48.208;-1.518;2023-07-20T01:59:08;15.70;99.90
31809;DHT22;18379;48.208;-1.518;2023-07-20T02:04:08;15.70;99.90
31809;DHT22;18379;48.208;-1.518;2023-07-20T02:09:09;15.60;99.90
31809;DHT22;18379;48.208;-1.518;2023-07-20T02:14:10;15.50;99.90
31809;DHT22;18379;48.208;-1.518;2023-07-20T02:19:11;15.50;99.90
31809;DHT22;18379;48.208;-1.518;2023-07-20T02:24:12;15.40;99.90
31809;DHT22;18379;48.208;-1.518;2023-07-20T02:29:14;15.30;99.90
31809;DHT22;18379;48.208;-1.518;2023-07-20T02:34:19;15.10;99.90
31809;DHT22;18379;48.208;-1.518;2023-07-20T02:39:20;15.00;99.90
31809;DHT22;18379;48.208;-1.518;2023-07-20T02:44:20;15.00;99.90
31809;DHT22;18379;48.208;-1.518;2023-07-20T02:49:21;14.90;99.90
31809;DHT22;18379;48.208;-1.518;2023-07-20T02:54:22;14.90;99.90
31809;DHT22;18379;48.208;-1.518;2023-07-20T02:59:23;15.00;99.90
31809;DHT22;18379;48.208;-1.518;2023-07-20T03:04:27;15.10;99.90
31809;DHT22;18379;48.208;-1.518;2023-07-20T03:09:28;15.10;99.90
31809;DHT22;18379;48.208;-1.518;2023-07-20T03:14:29;15.10;99.90
31809;DHT22;18379;48.208;-1.518;2023-07-20T03:19:30;15.00;99.90
31809;DHT22;18379;48.208;-1.518;2023-07-20T03:24:31;15.10;99.90
31809;DHT22;18379;48.208;-1.518;2023-07-20T03:29:32;15.10;99.90
31809;DHT22;18379;48.208;-1.518;2023-07-20T03:34:33;15.10;99.90
31809;DHT22;18379;48.208;-1.518;2023-07-20T03:39:34;15.00;99.90
31809;DHT22;18379;48.208;-1.518;2023-07-20T03:44:35;15.10;99.90
31809;DHT22;18379;48.208;-1.518;2023-07-20T03:49:36;15.10;99.90
31809;DHT22;18379;48.208;-1.518;2023-07-20T03:54:37;15.00;99.90
31809;DHT22;18379;48.208;-1.518;2023-07-20T03:59:39;15.00;99.90
31809;DHT22;18379;48.208;-1.518;2023-07-20T04:04:45;15.00;99.90
31809;DHT22;18379;48.208;-1.518;2023-07-20T04:09:45;15.00;99.90
31809;DHT22;18379;48.208;-1.518;2023-07-20T04:14:46;15.00;99.90
31809;DHT22;18379;48.208;-1.518;2023-07-20T04:19:47;14.80;99.90
31809;DHT22;18379;48.208;-1.518;2023-07-20T04:24:48;14.70;99.90
31809;DHT22;18379;48.208;-1.518;2023-07-20T04:29:48;14.70;99.90
31809;DHT22;18379;48.208;-1.518;2023-07-20T04:34:49;14.80;99.90
31809;DHT22;18379;48.208;-1.518;2023-07-20T04:39:50;14.70;99.90
31809;DHT22;18379;48.208;-1.518;2023-07-20T04:44:51;14.80;99.90
31809;DHT22;18379;48.208;-1.518;2023-07-20T04:49:51;14.90;99.90
31809;DHT22;18379;48.208;-1.518;2023-07-20T04:54:52;14.90;99.90
31809;DHT22;18379;48.208;-1.518;2023-07-20T04:59:53;15.10;99.90
31809;DHT22;18379;48.208;-1.518;2023-07-20T05:04:54;15.20;99.90
31809;DHT22;18379;48.208;-1.518;2023-07-20T05:09:54;15.30;99.90
31809;DHT22;18379;48.208;-1.518;2023-07-20T05:14:55;15.40;99.90
31809;DHT22;18379;48.208;-1.518;2023-07-20T05:19:56;15.60;99.90
31809;DHT22;18379;48.208;-1.518;2023-07-20T05:24:57;15.60;99.90
31809;DHT22;18379;48.208;-1.518;2023-07-20T05:29:57;15.60;99.90
31809;DHT22;18379;48.208;-1.518;2023-07-20T05:34:59;15.60;99.90
31809;DHT22;18379;48.208;-1.518;2023-07-20T05:40:00;15.60;99.90
31809;DHT22;18379;48.208;-1.518;2023-07-20T05:45:00;15.60;99.90
31809;DHT22;18379;48.208;-1.518;2023-07-20T05:50:01;15.60;99.90
31809;DHT22;18379;48.208;-1.518;2023-07-20T05:55:02;15.70;99.90
31809;DHT22;18379;48.208;-1.518;2023-07-20T06:00:04;15.60;99.90
31809;DHT22;18379;48.208;-1.518;2023-07-20T06:05:05;15.70;99.90
31809;DHT22;18379;48.208;-1.518;2023-07-20T06:10:08;15.70;99.90
31809;DHT22;18379;48.208;-1.518;2023-07-20T06:15:31;15.70;99.90
31809;DHT22;18379;48.208;-1.518;2023-07-20T06:20:33;15.70;99.90
31809;DHT22;18379;48.208;-1.518;2023-07-20T06:25:33;16.00;99.90
31809;DHT22;18379;48.208;-1.518;2023-07-20T06:30:34;16.10;99.90
31809;DHT22;18379;48.208;-1.518;2023-07-20T06:35:37;16.40;99.90
31809;DHT22;18379;48.208;-1.518;2023-07-20T06:40:39;16.30;99.90
31809;DHT22;18379;48.208;-1.518;2023-07-20T06:45:42;16.50;99.90
31809;DHT22;18379;48.208;-1.518;2023-07-20T06:50:47;16.90;99.90
31809;DHT22;18379;48.208;-1.518;2023-07-20T06:55:48;17.00;99.90
31809;DHT22;18379;48.208;-1.518;2023-07-20T07:00:48;16.90;99.90
31809;DHT22;18379;48.208;-1.518;2023-07-20T07:05:49;16.90;99.90
31809;DHT22;18379;48.208;-1.518;2023-07-20T07:10:50;16.90;99.90
31809;DHT22;18379;48.208;-1.518;2023-07-20T07:15:51;17.10;99.90
31809;DHT22;18379;48.208;-1.518;2023-07-20T07:20:53;17.60;99.90
31809;DHT22;18379;48.208;-1.518;2023-07-20T07:25:54;17.60;99.90
31809;DHT22;18379;48.208;-1.518;2023-07-20T07:30:55;17.50;99.90
31809;DHT22;18379;48.208;-1.518;2023-07-20T07:35:59;18.20;99.90
31809;DHT22;18379;48.208;-1.518;2023-07-20T07:41:00;18.30;99.90
31809;DHT22;18379;48.208;-1.518;2023-07-20T07:46:01;18.30;99.90
31809;DHT22;18379;48.208;-1.518;2023-07-20T07:51:02;18.40;99.90
31809;DHT22;18379;48.208;-1.518;2023-07-20T07:56:03;18.30;99.90
31809;DHT22;18379;48.208;-1.518;2023-07-20T08:01:04;18.90;99.90
31809;DHT22;18379;48.208;-1.518;2023-07-20T08:06:05;18.90;99.90
31809;DHT22;18379;48.208;-1.518;2023-07-20T08:11:08;18.50;99.90
31809;DHT22;18379;48.208;-1.518;2023-07-20T08:16:09;18.70;99.90
31809;DHT22;18379;48.208;-1.518;2023-07-20T08:21:09;18.90;99.90
31809;DHT22;18379;48.208;-1.518;2023-07-20T08:26:10;19.20;99.90
31809;DHT22;18379;48.208;-1.518;2023-07-20T08:31:11;19.70;99.90
31809;DHT22;18379;48.208;-1.518;2023-07-20T08:36:12;19.10;99.90
31809;DHT22;18379;48.208;-1.518;2023-07-20T08:41:14;19.80;99.90
31809;DHT22;18379;48.208;-1.518;2023-07-20T08:46:17;20.20;99.90
31809;DHT22;18379;48.208;-1.518;2023-07-20T08:51:18;20.30;99.90
31809;DHT22;18379;48.208;-1.518;2023-07-20T08:56:20;20.70;99.90
31809;DHT22;18379;48.208;-1.518;2023-07-20T09:01:22;20.70;99.90
31809;DHT22;18379;48.208;-1.518;2023-07-20T09:06:23;20.40;99.90
31809;DHT22;18379;48.208;-1.518;2023-07-20T09:11:24;20.40;99.90
31809;DHT22;18379;48.208;-1.518;2023-07-20T09:16:25;21.10;99.90
31809;DHT22;18379;48.208;-1.518;2023-07-20T09:21:29;21.40;99.90
31809;DHT22;18379;48.208;-1.518;2023-07-20T09:26:31;21.20;99.90
31809;DHT22;18379;48.208;-1.518;2023-07-20T09:31:36;20.90;99.90
31809;DHT22;18379;48.208;-1.518;2023-07-20T09:36:39;20.80;99.90
31809;DHT22;18379;48.208;-1.518;2023-07-20T09:41:40;21.10;99.90
31809;DHT22;18379;48.208;-1.518;2023-07-20T09:46:53;21.50;99.90
31809;DHT22;18379;48.208;-1.518;2023-07-20T09:51:55;22.10;99.90
31809;DHT22;18379;48.208;-1.518;2023-07-20T09:56:58;22.50;99.90
31809;DHT22;18379;48.208;-1.518;2023-07-20T10:02:01;22.20;99.90
31809;DHT22;18379;48.208;-1.518;2023-07-20T10:07:08;22.10;99.90
31809;DHT22;18379;48.208;-1.518;2023-07-20T10:12:11;22.40;99.90
31809;DHT22;18379;48.208;-1.518;2023-07-20T10:17:13;22.80;99.90
31809;DHT22;18379;48.208;-1.518;2023-07-20T10:22:19;22.50;99.90
31809;DHT22;18379;48.208;-1.518;2023-07-20T10:27:23;22.80;99.90
31809;DHT22;18379;48.208;-1.518;2023-07-20T10:32:24;23.30;99.90
31809;DHT22;18379;48.208;-1.518;2023-07-20T10:37:54;23.50;99.90
31809;DHT22;18379;48.208;-1.518;2023-07-20T10:43:06;23.90;99.90
31809;DHT22;18379;48.208;-1.518;2023-07-20T10:48:18;24.70;99.90
31809;DHT22;18379;48.208;-1.518;2023-07-20T10:53:20;24.10;99.90
31809;DHT22;18379;48.208;-1.518;2023-07-20T10:58:20;23.60;99.90
31809;DHT22;18379;48.208;-1.518;2023-07-20T11:03:31;23.00;99.90
31809;DHT22;18379;48.208;-1.518;2023-07-20T11:08:39;23.10;99.90
31809;DHT22;18379;48.208;-1.518;2023-07-20T11:13:57;23.20;99.90
31809;DHT22;18379;48.208;-1.518;2023-07-20T11:18:59;23.70;99.90
31809;DHT22;18379;48.208;-1.518;2023-07-20T11:24:03;23.50;99.90
31809;DHT22;18379;48.208;-1.518;2023-07-20T11:29:04;23.50;99.90
31809;DHT22;18379;48.208;-1.518;2023-07-20T11:34:05;23.50;99.90
31809;DHT22;18379;48.208;-1.518;2023-07-20T11:39:08;23.70;99.90
31809;DHT22;18379;48.208;-1.518;2023-07-20T11:44:10;23.80;99.90
31809;DHT22;18379;48.208;-1.518;2023-07-20T11:49:13;23.50;99.90
31809;DHT22;18379;48.208;-1.518;2023-07-20T11:54:14;23.90;99.90
31809;DHT22;18379;48.208;-1.518;2023-07-20T11:59:18;24.30;99.90
31809;DHT22;18379;48.208;-1.518;2023-07-20T12:04:22;24.10;99.90
31809;DHT22;18379;48.208;-1.518;2023-07-20T12:09:23;25.10;99.90
31809;DHT22;18379;48.208;-1.518;2023-07-20T12:14:25;25.40;99.90
31809;DHT22;18379;48.208;-1.518;2023-07-20T12:19:26;25.50;99.90
31809;DHT22;18379;48.208;-1.518;2023-07-20T12:24:27;25.60;99.90
31809;DHT22;18379;48.208;-1.518;2023-07-20T12:29:27;24.70;99.90
31809;DHT22;18379;48.208;-1.518;2023-07-20T12:34:28;24.50;99.90
31809;DHT22;18379;48.208;-1.518;2023-07-20T12:39:29;25.40;99.90
31809;DHT22;18379;48.208;-1.518;2023-07-20T12:44:30;25.00;99.90
31809;DHT22;18379;48.208;-1.518;2023-07-20T12:49:31;24.70;99.90
31809;DHT22;18379;48.208;-1.518;2023-07-20T12:54:31;24.70;99.90
31809;DHT22;18379;48.208;-1.518;2023-07-20T12:59:33;23.90;99.90
31809;DHT22;18379;48.208;-1.518;2023-07-20T13:04:34;24.70;99.90
31809;DHT22;18379;48.208;-1.518;2023-07-20T13:09:34;25.70;99.90
31809;DHT22;18379;48.208;-1.518;2023-07-20T13:14:35;25.10;99.90
31809;DHT22;18379;48.208;-1.518;2023-07-20T13:19:36;25.30;99.90
31809;DHT22;18379;48.208;-1.518;2023-07-20T13:24:37;25.50;99.90
31809;DHT22;18379;48.208;-1.518;2023-07-20T13:29:37;25.80;99.90
31809;DHT22;18379;48.208;-1.518;2023-07-20T13:34:38;24.60;99.90
31809;DHT22;18379;48.208;-1.518;2023-07-20T13:39:40;24.40;99.90
31809;DHT22;18379;48.208;-1.518;2023-07-20T13:44:41;24.30;99.90
31809;DHT22;18379;48.208;-1.518;2023-07-20T13:49:41;24.30;99.90
31809;DHT22;18379;48.208;-1.518;2023-07-20T13:54:42;23.60;99.90
31809;DHT22;18379;48.208;-1.518;2023-07-20T13:59:44;23.20;99.90
31809;DHT22;18379;48.208;-1.518;2023-07-20T14:04:45;22.80;99.90
31809;DHT22;18379;48.208;-1.518;2023-07-20T14:09:46;22.30;99.90
31809;DHT22;18379;48.208;-1.518;2023-07-20T14:14:46;22.20;99.90
31809;DHT22;18379;48.208;-1.518;2023-07-20T14:19:47;22.60;99.90
31809;DHT22;18379;48.208;-1.518;2023-07-20T14:24:48;22.40;99.90
31809;DHT22;18379;48.208;-1.518;2023-07-20T14:29:49;23.00;99.90
31809;DHT22;18379;48.208;-1.518;2023-07-20T14:34:50;22.80;99.90
31809;DHT22;18379;48.208;-1.518;2023-07-20T14:39:51;23.70;99.90
31809;DHT22;18379;48.208;-1.518;2023-07-20T14:44:52;23.60;99.90
31809;DHT22;18379;48.208;-1.518;2023-07-20T14:49:53;22.80;99.90
31809;DHT22;18379;48.208;-1.518;2023-07-20T14:54:54;22.80;99.90
31809;DHT22;18379;48.208;-1.518;2023-07-20T14:59:55;22.70;99.90
31809;DHT22;18379;48.208;-1.518;2023-07-20T15:04:56;22.60;99.90
31809;DHT22;18379;48.208;-1.518;2023-07-20T15:09:57;22.30;99.90
31809;DHT22;18379;48.208;-1.518;2023-07-20T15:15:08;22.20;99.90
31809;DHT22;18379;48.208;-1.518;2023-07-20T15:20:12;22.10;99.90
31809;DHT22;18379;48.208;-1.518;2023-07-20T15:25:14;21.90;99.90
31809;DHT22;18379;48.208;-1.518;2023-07-20T15:30:14;22.10;99.90
31809;DHT22;18379;48.208;-1.518;2023-07-20T15:35:16;22.10;99.90
31809;DHT22;18379;48.208;-1.518;2023-07-20T15:40:18;22.10;99.90
31809;DHT22;18379;48.208;-1.518;2023-07-20T15:45:22;22.00;99.90
31809;DHT22;18379;48.208;-1.518;2023-07-20T15:50:24;21.90;99.90
31809;DHT22;18379;48.208;-1.518;2023-07-20T15:55:25;21.80;99.90
31809;DHT22;18379;48.208;-1.518;2023-07-20T16:00:25;21.60;99.90
31809;DHT22;18379;48.208;-1.518;2023-07-20T16:05:26;21.80;99.90
31809;DHT22;18379;48.208;-1.518;2023-07-20T16:10:27;21.70;99.90
31809;DHT22;18379;48.208;-1.518;2023-07-20T16:15:28;21.50;99.90
31809;DHT22;18379;48.208;-1.518;2023-07-20T16:20:33;21.20;99.90
31809;DHT22;18379;48.208;-1.518;2023-07-20T16:25:55;21.00;99.90
31809;DHT22;18379;48.208;-1.518;2023-07-20T16:30:55;21.90;99.90
31809;DHT22;18379;48.208;-1.518;2023-07-20T16:35:57;21.70;99.90
31809;DHT22;18379;48.208;-1.518;2023-07-20T16:40:58;21.30;99.90
31809;DHT22;18379;48.208;-1.518;2023-07-20T16:46:03;21.20;99.90
31809;DHT22;18379;48.208;-1.518;2023-07-20T16:51:06;20.90;99.90
31809;DHT22;18379;48.208;-1.518;2023-07-20T16:56:07;20.70;99.90
31809;DHT22;18379;48.208;-1.518;2023-07-20T17:01:07;20.70;99.90
31809;DHT22;18379;48.208;-1.518;2023-07-20T17:06:08;20.70;99.90
31809;DHT22;18379;48.208;-1.518;2023-07-20T17:11:09;20.80;99.90
31809;DHT22;18379;48.208;-1.518;2023-07-20T17:16:10;20.80;99.90
31809;DHT22;18379;48.208;-1.518;2023-07-20T17:21:11;20.60;99.90
31809;DHT22;18379;48.208;-1.518;2023-07-20T17:26:12;20.30;99.90
31809;DHT22;18379;48.208;-1.518;2023-07-20T17:31:13;20.20;99.90
31809;DHT22;18379;48.208;-1.518;2023-07-20T17:36:13;20.20;99.90
31809;DHT22;18379;48.208;-1.518;2023-07-20T17:41:14;20.00;99.90
31809;DHT22;18379;48.208;-1.518;2023-07-20T17:46:15;19.70;99.90
31809;DHT22;18379;48.208;-1.518;2023-07-20T17:51:16;19.70;99.90
31809;DHT22;18379;48.208;-1.518;2023-07-20T17:56:17;19.60;99.90
31809;DHT22;18379;48.208;-1.518;2023-07-20T18:01:18;19.70;99.90
31809;DHT22;18379;48.208;-1.518;2023-07-20T18:06:19;19.70;99.90
31809;DHT22;18379;48.208;-1.518;2023-07-20T18:11:19;19.90;99.90
31809;DHT22;18379;48.208;-1.518;2023-07-20T18:16:20;19.50;99.90
31809;DHT22;18379;48.208;-1.518;2023-07-20T18:21:21;19.30;99.90
31809;DHT22;18379;48.208;-1.518;2023-07-20T18:26:22;19.20;99.90
31809;DHT22;18379;48.208;-1.518;2023-07-20T18:31:23;19.00;99.90
31809;DHT22;18379;48.208;-1.518;2023-07-20T18:36:25;18.80;99.90
31809;DHT22;18379;48.208;-1.518;2023-07-20T18:41:25;18.60;99.90
31809;DHT22;18379;48.208;-1.518;2023-07-20T18:46:26;18.50;99.90
31809;DHT22;18379;48.208;-1.518;2023-07-20T18:51:27;18.30;99.90
31809;DHT22;18379;48.208;-1.518;2023-07-20T18:56:28;18.30;99.90
31809;DHT22;18379;48.208;-1.518;2023-07-20T19:01:29;18.20;99.90
31809;DHT22;18379;48.208;-1.518;2023-07-20T19:06:30;18.10;99.90
31809;DHT22;18379;48.208;-1.518;2023-07-20T19:11:30;18.00;99.90
31809;DHT22;18379;48.208;-1.518;2023-07-20T19:16:31;17.90;99.90
31809;DHT22;18379;48.208;-1.518;2023-07-20T19:21:32;18.00;99.90
31809;DHT22;18379;48.208;-1.518;2023-07-20T19:26:33;18.00;99.90
31809;DHT22;18379;48.208;-1.518;2023-07-20T19:31:33;17.90;99.90
31809;DHT22;18379;48.208;-1.518;2023-07-20T19:36:34;17.90;99.90
31809;DHT22;18379;48.208;-1.518;2023-07-20T19:41:35;17.90;99.90
31809;DHT22;18379;48.208;-1.518;2023-07-20T19:46:38;17.80;99.90
31809;DHT22;18379;48.208;-1.518;2023-07-20T19:51:39;17.60;99.90
31809;DHT22;18379;48.208;-1.518;2023-07-20T19:56:40;17.50;99.90
31809;DHT22;18379;48.208;-1.518;2023-07-20T20:01:41;17.50;99.90
31809;DHT22;18379;48.208;-1.518;2023-07-20T20:06:42;17.50;99.90
31809;DHT22;18379;48.208;-1.518;2023-07-20T20:11:44;17.50;99.90
31809;DHT22;18379;48.208;-1.518;2023-07-20T20:16:45;17.30;99.90
31809;DHT22;18379;48.208;-1.518;2023-07-20T20:21:46;17.20;99.90
31809;DHT22;18379;48.208;-1.518;2023-07-20T20:26:47;17.20;99.90
31809;DHT22;18379;48.208;-1.518;2023-07-20T20:31:47;17.00;99.90
31809;DHT22;18379;48.208;-1.518;2023-07-20T20:36:48;16.90;99.90
31809;DHT22;18379;48.208;-1.518;2023-07-20T20:41:49;16.70;99.90
31809;DHT22;18379;48.208;-1.518;2023-07-20T20:46:50;16.70;99.90
31809;DHT22;18379;48.208;-1.518;2023-07-20T20:51:51;16.90;99.90
31809;DHT22;18379;48.208;-1.518;2023-07-20T20:56:52;16.80;99.90
31809;DHT22;18379;48.208;-1.518;2023-07-20T21:01:54;16.60;99.90
31809;DHT22;18379;48.208;-1.518;2023-07-20T21:06:55;16.10;99.90
31809;DHT22;18379;48.208;-1.518;2023-07-20T21:11:56;16.00;99.90
31809;DHT22;18379;48.208;-1.518;2023-07-20T21:16:57;15.90;99.90
31809;DHT22;18379;48.208;-1.518;2023-07-20T21:21:58;15.80;99.90
31809;DHT22;18379;48.208;-1.518;2023-07-20T21:26:59;15.80;99.90
31809;DHT22;18379;48.208;-1.518;2023-07-20T21:32:00;15.70;99.90
31809;DHT22;18379;48.208;-1.518;2023-07-20T21:37:02;15.70;99.90
31809;DHT22;18379;48.208;-1.518;2023-07-20T21:42:03;15.80;99.90
31809;DHT22;18379;48.208;-1.518;2023-07-20T21:47:04;15.70;99.90
31809;DHT22;18379;48.208;-1.518;2023-07-20T21:52:05;15.60;99.90
31809;DHT22;18379;48.208;-1.518;2023-07-20T21:57:06;15.70;99.90
31809;DHT22;18379;48.208;-1.518;2023-07-20T22:02:07;15.80;99.90
31809;DHT22;18379;48.208;-1.518;2023-07-20T22:07:08;15.60;99.90
31809;DHT22;18379;48.208;-1.518;2023-07-20T22:12:24;15.50;99.90
31809;DHT22;18379;48.208;-1.518;2023-07-20T22:17:24;15.70;99.90
31809;DHT22;18379;48.208;-1.518;2023-07-20T22:22:25;15.70;99.90
31809;DHT22;18379;48.208;-1.518;2023-07-20T22:27:27;15.80;99.90
31809;DHT22;18379;48.208;-1.518;2023-07-20T22:32:28;15.90;99.90
31809;DHT22;18379;48.208;-1.518;2023-07-20T22:37:29;15.80;99.90
31809;DHT22;18379;48.208;-1.518;2023-07-20T22:42:30;15.60;99.90
31809;DHT22;18379;48.208;-1.518;2023-07-20T22:47:32;15.50;99.90
31809;DHT22;18379;48.208;-1.518;2023-07-20T22:52:33;15.60;99.90
31809;DHT22;18379;48.208;-1.518;2023-07-20T22:57:34;15.60;99.90
31809;DHT22;18379;48.208;-1.518;2023-07-20T23:02:35;15.60;99.90
31809;DHT22;18379;48.208;-1.518;2023-07-20T23:07:37;15.60;99.90
31809;DHT22;18379;48.208;-1.518;2023-07-20T23:12:38;15.60;99.90
31809;DHT22;18379;48.208;-1.518;2023-07-20T23:17:40;15.70;99.90
31809;DHT22;18379;48.208;-1.518;2023-07-20T23:22:40;15.60;99.90
31809;DHT22;18379;48.208;-1.518;2023-07-20T23:27:41;15.50;99.90
31809;DHT22;18379;48.208;-1.518;2023-07-20T23:32:42;15.30;99.90
31809;DHT22;18379;48.208;-1.518;2023-07-20T23:37:44;15.30;99.90
31809;DHT22;18379;48.208;-1.518;2023-07-20T23:42:47;15.40;99.90
31809;DHT22;18379;48.208;-1.518;2023-07-20T23:47:48;15.40;99.90
31809;DHT22;18379;48.208;-1.518;2023-07-20T23:52:49;15.40;99.90
31809;DHT22;18379;48.208;-1.518;2023-07-20T23:57:50;15.40;99.90
